| time (UTC) | temp F | wind direction | speed MPH | gust MPH | rain 1hr in | rain 24hr in | rain mn in | humidity % | barometer mb |
| 20260504141009 | 61 | 271 | 3.0 | 12.0 | 0.00 | 0.00 | 0.00 | 38 | 1012.2 |
| 20260504140511 | 60 | 295 | 3.0 | 18.0 | 0.00 | 0.00 | 0.00 | 38 | 1012.3 |
| 20260504130509 | 57 | 360 | 4.0 | 15.0 | 0.00 | 0.00 | 0.00 | 41 | 1012.9 |
| 20260504110508 | 48 | 360 | 0.0 | 3.0 | 0.00 | 0.00 | 0.00 | 55 | 1013.1 |
| 20260504100512 | 47 | 320 | 0.0 | 5.0 | 0.00 | 0.00 | 0.00 | 56 | 1012.7 |
| 20260504082003 | 46 | 220 | 0.0 | 1.0 | 0.00 | 0.00 | 0.00 | 56 | 1012.3 |
| 20260504081513 | 46 | 224 | 0.0 | 2.0 | 0.00 | 0.00 | 0.00 | 56 | 1012.4 |
| 20260504081007 | 46 | 259 | 0.0 | 2.0 | 0.00 | 0.00 | 0.00 | 55 | 1012.4 |
| 20260504080504 | 46 | 210 | 0.0 | 3.0 | 0.00 | 0.00 | 0.00 | 55 | 1012.4 |
| 20260504050514 | 43 | 219 | 0.0 | 0.0 | 0.00 | 0.00 | 0.00 | 60 | 1011.9 |
| 20260504045509 | 43 | 219 | 0.0 | 0.0 | 0.00 | 0.00 | 0.00 | 58 | 1011.9 |
| 20260504045009 | 43 | 219 | 0.0 | 0.0 | 0.00 | 0.00 | 0.00 | 57 | 1012.1 |
| 20260504044516 | 43 | 219 | 0.0 | 0.0 | 0.00 | 0.00 | 0.00 | 57 | 1012.1 |
| 20260504044006 | 43 | 219 | 0.0 | 0.0 | 0.00 | 0.00 | 0.00 | 58 | 1012.1 |
| 20260504043507 | 43 | 219 | 0.0 | 0.0 | 0.00 | 0.00 | 0.00 | 59 | 1012.1 |
| 20260504043021 | 44 | 219 | 0.0 | 0.0 | 0.00 | 0.00 | 0.00 | 59 | 1012.1 |
| 20260504042507 | 44 | 219 | 0.0 | 0.0 | 0.00 | 0.00 | 0.00 | 57 | 1012.1 |
| 20260504042007 | 44 | 223 | 0.0 | 0.0 | 0.00 | 0.00 | 0.00 | 58 | 1012.0 |
| 20260504041521 | 44 | 223 | 0.0 | 0.0 | 0.00 | 0.00 | 0.00 | 57 | 1011.9 |
| 20260504041008 | 45 | 223 | 0.0 | 0.0 | 0.00 | 0.00 | 0.00 | 56 | 1012.0 |
| 20260504040508 | 45 | 223 | 0.0 | 0.0 | 0.00 | 0.00 | 0.00 | 55 | 1012.0 |
| 20260504040029 | 45 | 223 | 0.0 | 0.0 | 0.00 | 0.00 | 0.00 | 55 | 1012.0 |
| 20260504035511 | 45 | 223 | 0.0 | 0.0 | 0.00 | 0.00 | 0.00 | 55 | 1012.0 |
| 20260504035013 | 45 | 229 | 0.0 | 0.0 | 0.00 | 0.00 | 0.00 | 55 | 1011.9 |
| 20260504034526 | 45 | 229 | 0.0 | 0.0 | 0.00 | 0.00 | 0.00 | 55 | 1012.0 |
| 20260504034017 | 45 | 229 | 0.0 | 0.0 | 0.00 | 0.00 | 0.00 | 53 | 1011.9 |
| 20260504033510 | 45 | 229 | 0.0 | 0.0 | 0.00 | 0.00 | 0.00 | 53 | 1011.9 |
| 20260504033018 | 46 | 229 | 0.0 | 0.0 | 0.00 | 0.00 | 0.00 | 53 | 1011.8 |
| 20260504032505 | 46 | 229 | 0.0 | 0.0 | 0.00 | 0.00 | 0.00 | 51 | 1011.8 |
| 20260504032009 | 46 | 229 | 0.0 | 0.0 | 0.00 | 0.00 | 0.00 | 51 | 1011.7 |
| 20260504031522 | 46 | 229 | 0.0 | 0.0 | 0.00 | 0.00 | 0.00 | 49 | 1011.7 |
| 20260504031007 | 47 | 229 | 0.0 | 0.0 | 0.00 | 0.00 | 0.00 | 49 | 1011.7 |
| 20260504030507 | 47 | 229 | 0.0 | 0.0 | 0.00 | 0.00 | 0.00 | 49 | 1011.7 |
| 20260504030027 | 47 | 232 | 0.0 | 2.0 | 0.00 | 0.00 | 0.00 | 49 | 1011.8 |
| 20260504025508 | 48 | 233 | 0.0 | 2.0 | 0.00 | 0.00 | 0.00 | 48 | 1011.8 |
| 20260504025008 | 48 | 240 | 0.0 | 2.0 | 0.00 | 0.00 | 0.00 | 47 | 1011.8 |
| 20260504024528 | 48 | 229 | 0.0 | 2.0 | 0.00 | 0.00 | 0.00 | 46 | 1011.7 |
| 20260504024009 | 48 | 233 | 0.0 | 2.0 | 0.00 | 0.00 | 0.00 | 45 | 1011.8 |
| 20260504023510 | 48 | 229 | 0.0 | 2.0 | 0.00 | 0.00 | 0.00 | 45 | 1011.8 |
| 20260504023030 | 48 | 229 | 0.0 | 2.0 | 0.00 | 0.00 | 0.00 | 45 | 1011.7 |
| 20260504022513 | 48 | 248 | 0.0 | 2.0 | 0.00 | 0.00 | 0.00 | 45 | 1011.9 |
| 20260504022008 | 49 | 276 | 0.0 | 2.0 | 0.00 | 0.00 | 0.00 | 44 | 1011.8 |
| 20260504021519 | 49 | 272 | 0.0 | 2.0 | 0.00 | 0.00 | 0.00 | 44 | 1011.8 |
| 20260504021009 | 49 | 272 | 0.0 | 2.0 | 0.00 | 0.00 | 0.00 | 43 | 1011.8 |
| 20260504020508 | 49 | 272 | 0.0 | 2.0 | 0.00 | 0.00 | 0.00 | 43 | 1011.8 |
| 20260504020025 | 49 | 297 | 0.0 | 2.0 | 0.00 | 0.00 | 0.00 | 42 | 1011.8 |
| 20260504015508 | 49 | 297 | 1.0 | 2.0 | 0.00 | 0.00 | 0.00 | 42 | 1011.9 |
| 20260504015016 | 49 | 262 | 0.0 | 2.0 | 0.00 | 0.00 | 0.00 | 42 | 1011.8 |
| 20260504014540 | 50 | 249 | 0.0 | 3.0 | 0.00 | 0.00 | 0.00 | 42 | 1011.7 |
| 20260504014007 | 50 | 280 | 0.0 | 3.0 | 0.00 | 0.00 | 0.00 | 41 | 1011.7 |
| 20260504013510 | 50 | 260 | 0.0 | 2.0 | 0.00 | 0.00 | 0.00 | 41 | 1011.7 |
| 20260504013026 | 50 | 255 | 0.0 | 3.0 | 0.00 | 0.00 | 0.00 | 41 | 1011.6 |
| 20260504012513 | 50 | 243 | 0.0 | 3.0 | 0.00 | 0.00 | 0.00 | 40 | 1011.5 |
| 20260504012011 | 50 | 279 | 0.0 | 2.0 | 0.00 | 0.00 | 0.00 | 40 | 1011.5 |
| 20260504011530 | 50 | 266 | 0.0 | 2.0 | 0.00 | 0.00 | 0.00 | 40 | 1011.4 |
| 20260504011011 | 50 | 276 | 0.0 | 3.0 | 0.00 | 0.00 | 0.00 | 39 | 1011.3 |
| 20260504010513 | 50 | 288 | 0.0 | 3.0 | 0.00 | 0.00 | 0.00 | 39 | 1011.2 |
| 20260504010004 | 50 | 266 | 0.0 | 2.0 | 0.00 | 0.00 | 0.00 | 39 | 1011.1 |
| 20260504005503 | 50 | 251 | 0.0 | 2.0 | 0.00 | 0.00 | 0.00 | 38 | 1011.0 |
| 20260504005004 | 50 | 263 | 0.0 | 2.0 | 0.00 | 0.00 | 0.00 | 38 | 1011.0 |
| 20260504004507 | 50 | 263 | 0.0 | 2.0 | 0.00 | 0.00 | 0.00 | 38 | 1010.9 |
| 20260504004004 | 50 | 242 | 0.0 | 2.0 | 0.00 | 0.00 | 0.00 | 38 | 1010.9 |
| 20260504003503 | 51 | 257 | 0.0 | 2.0 | 0.00 | 0.00 | 0.00 | 37 | 1010.9 |
| 20260504003010 | 51 | 288 | 0.0 | 0.0 | 0.00 | 0.00 | 0.00 | 37 | 1010.8 |
| 20260504002504 | 51 | 264 | 0.0 | 2.0 | 0.00 | 0.00 | 0.00 | 37 | 1010.7 |
| 20260504002005 | 51 | 257 | 0.0 | 2.0 | 0.00 | 0.00 | 0.00 | 37 | 1010.6 |
| 20260504001516 | 52 | 275 | 0.0 | 2.0 | 0.00 | 0.00 | 0.00 | 35 | 1010.6 |
| 20260504001007 | 52 | 276 | 0.0 | 6.0 | 0.00 | 0.00 | 0.00 | 35 | 1010.6 |
| 20260504000459 | 52 | 297 | 0.0 | 6.0 | 0.00 | 0.00 | 0.00 | 36 | 1010.5 |
| 20260504000006 | 52 | 295 | 1.0 | 5.0 | 0.00 | 0.00 | 0.00 | 36 | 1010.5 |
| 20260503235505 | 52 | 54 | 0.0 | 2.0 | 0.00 | 0.00 | 0.00 | 36 | 1010.4 |
| 20260503235003 | 52 | 259 | 0.0 | 2.0 | 0.00 | 0.00 | 0.00 | 37 | 1010.3 |
| 20260503234504 | 52 | 262 | 0.0 | 3.0 | 0.00 | 0.00 | 0.00 | 36 | 1010.2 |
| 20260503234004 | 52 | 295 | 0.0 | 3.0 | 0.00 | 0.00 | 0.00 | 36 | 1010.1 |
| 20260503233504 | 52 | 354 | 0.0 | 0.0 | 0.00 | 0.00 | 0.00 | 37 | 1010.0 |
| 20260503233009 | 52 | 271 | 0.0 | 0.0 | 0.00 | 0.00 | 0.00 | 37 | 1010.0 |
| 20260503232504 | 52 | 269 | 0.0 | 1.0 | 0.00 | 0.00 | 0.00 | 36 | 1010.0 |
| 20260503232004 | 53 | 281 | 0.0 | 2.0 | 0.00 | 0.00 | 0.00 | 35 | 1010.0 |
| 20260503231512 | 53 | 281 | 0.0 | 2.0 | 0.00 | 0.00 | 0.00 | 35 | 1010.0 |
| 20260503231006 | 53 | 330 | 0.0 | 2.0 | 0.00 | 0.00 | 0.00 | 35 | 1010.0 |
| 20260503230504 | 54 | 320 | 0.0 | 3.0 | 0.00 | 0.00 | 0.00 | 35 | 1009.9 |
| 20260503230016 | 54 | 292 | 0.0 | 3.0 | 0.00 | 0.00 | 0.00 | 34 | 1009.8 |
| 20260503225504 | 54 | 278 | 0.0 | 3.0 | 0.00 | 0.00 | 0.00 | 33 | 1009.8 |
| 20260503225003 | 55 | 312 | 1.0 | 4.0 | 0.00 | 0.00 | 0.00 | 33 | 1009.7 |
| 20260503224503 | 56 | 91 | 1.0 | 7.0 | 0.00 | 0.00 | 0.00 | 33 | 1009.7 |
| 20260503224005 | 56 | 253 | 1.0 | 7.0 | 0.00 | 0.00 | 0.00 | 32 | 1009.7 |
| 20260503223503 | 56 | 274 | 1.0 | 4.0 | 0.00 | 0.00 | 0.00 | 32 | 1009.7 |
| 20260503223005 | 56 | 345 | 0.0 | 8.0 | 0.00 | 0.00 | 0.00 | 33 | 1009.7 |
| 20260503222504 | 56 | 51 | 0.0 | 8.0 | 0.00 | 0.00 | 0.00 | 33 | 1009.7 |
| 20260503222004 | 56 | 304 | 1.0 | 7.0 | 0.00 | 0.00 | 0.00 | 33 | 1009.6 |
| 20260503221508 | 56 | 281 | 1.0 | 10.0 | 0.00 | 0.00 | 0.00 | 32 | 1009.6 |
| 20260503221006 | 56 | 321 | 3.0 | 14.0 | 0.00 | 0.00 | 0.00 | 33 | 1009.6 |
| 20260503220506 | 57 | 276 | 1.0 | 14.0 | 0.00 | 0.00 | 0.00 | 33 | 1009.6 |
| 20260503220020 | 57 | 272 | 2.0 | 6.0 | 0.00 | 0.00 | 0.00 | 32 | 1009.6 |
| 20260503215506 | 57 | 342 | 2.0 | 9.0 | 0.00 | 0.00 | 0.00 | 32 | 1009.6 |
| 20260503215006 | 57 | 17 | 1.0 | 9.0 | 0.00 | 0.00 | 0.00 | 33 | 1009.6 |
| 20260503214529 | 57 | 298 | 2.0 | 7.0 | 0.00 | 0.00 | 0.00 | 33 | 1009.7 |
| 20260503214002 | 57 | 58 | 2.0 | 7.0 | 0.00 | 0.00 | 0.00 | 33 | 1009.8 |
| 20260503213504 | 57 | 57 | 1.0 | 7.0 | 0.00 | 0.00 | 0.00 | 35 | 1009.6 |
| 20260503213003 | 57 | 255 | 2.0 | 9.0 | 0.00 | 0.00 | 0.00 | 35 | 1009.5 |
| 20260503212504 | 57 | 221 | 2.0 | 13.0 | 0.00 | 0.00 | 0.00 | 36 | 1009.6 |
| 20260503212005 | 57 | 346 | 1.0 | 13.0 | 0.00 | 0.00 | 0.00 | 35 | 1009.5 |
| 20260503211509 | 57 | 238 | 3.0 | 7.0 | 0.00 | 0.00 | 0.00 | 36 | 1009.6 |
| 20260503211004 | 57 | 53 | 0.0 | 4.0 | 0.00 | 0.00 | 0.00 | 36 | 1009.5 |
| 20260503210504 | 57 | 328 | 1.0 | 7.0 | 0.00 | 0.00 | 0.00 | 38 | 1009.6 |
| 20260503210035 | 56 | 316 | 1.0 | 7.0 | 0.00 | 0.00 | 0.00 | 37 | 1009.7 |
| 20260503205509 | 56 | 292 | 1.0 | 4.0 | 0.00 | 0.00 | 0.00 | 37 | 1009.6 |
| 20260503205007 | 56 | 39 | 0.0 | 11.0 | 0.00 | 0.00 | 0.00 | 39 | 1009.6 |
| 20260503204516 | 55 | 291 | 2.0 | 11.0 | 0.00 | 0.00 | 0.00 | 40 | 1009.6 |
| 20260503204008 | 54 | 86 | 2.0 | 6.0 | 0.00 | 0.00 | 0.00 | 37 | 1009.6 |
| 20260503203507 | 54 | 25 | 1.0 | 8.0 | 0.00 | 0.00 | 0.00 | 38 | 1009.5 |
| 20260503203004 | 54 | 30 | 3.0 | 13.0 | 0.00 | 0.00 | 0.00 | 37 | 1009.6 |
| 20260503202504 | 54 | 49 | 2.0 | 13.0 | 0.00 | 0.00 | 0.00 | 38 | 1009.5 |
| 20260503202003 | 54 | 11 | 1.0 | 9.0 | 0.00 | 0.00 | 0.00 | 37 | 1009.6 |
| 20260503201506 | 54 | 4 | 3.0 | 13.0 | 0.00 | 0.00 | 0.00 | 38 | 1009.6 |
| 20260503201004 | 55 | 360 | 2.0 | 13.0 | 0.00 | 0.00 | 0.00 | 37 | 1009.7 |
| 20260503200504 | 55 | 287 | 4.0 | 13.0 | 0.00 | 0.00 | 0.00 | 36 | 1009.8 |
| 20260503200015 | 56 | 360 | 3.0 | 15.0 | 0.00 | 0.00 | 0.00 | 37 | 1009.9 |
| 20260503195504 | 56 | 302 | 2.0 | 15.0 | 0.00 | 0.00 | 0.00 | 37 | 1009.7 |
| 20260503195005 | 56 | 34 | 1.0 | 18.0 | 0.00 | 0.00 | 0.00 | 39 | 1009.6 |
| 20260503194516 | 55 | 237 | 3.0 | 18.0 | 0.00 | 0.00 | 0.00 | 38 | 1009.9 |
| 20260503194008 | 55 | 276 | 3.0 | 10.0 | 0.00 | 0.00 | 0.00 | 39 | 1009.8 |
| 20260503193505 | 54 | 259 | 5.0 | 9.0 | 0.00 | 0.00 | 0.00 | 39 | 1009.8 |
| 20260503193020 | 52 | 11 | 2.0 | 9.0 | 0.00 | 0.00 | 0.00 | 41 | 1010.0 |
| 20260503192507 | 51 | 6 | 2.0 | 13.0 | 0.00 | 0.00 | 0.00 | 41 | 1009.9 |
| 20260503192000 | 52 | 266 | 1.0 | 13.0 | 0.00 | 0.00 | 0.00 | 39 | 1010.0 |
| 20260503191504 | 53 | 312 | 1.0 | 13.0 | 0.00 | 0.00 | 0.00 | 39 | 1010.0 |
| 20260503191002 | 54 | 16 | 1.0 | 13.0 | 0.00 | 0.00 | 0.00 | 39 | 1010.0 |
| 20260503190506 | 54 | 10 | 3.0 | 16.0 | 0.00 | 0.00 | 0.00 | 41 | 1009.9 |
| 20260503190008 | 53 | 293 | 4.0 | 16.0 | 0.00 | 0.00 | 0.00 | 40 | 1010.0 |
| 20260503185504 | 53 | 297 | 1.0 | 11.0 | 0.00 | 0.00 | 0.00 | 39 | 1009.9 |
| 20260503185009 | 53 | 300 | 2.0 | 12.0 | 0.00 | 0.00 | 0.00 | 39 | 1009.9 |
| 20260503184515 | 54 | 309 | 3.0 | 12.0 | 0.00 | 0.00 | 0.00 | 37 | 1009.9 |
| 20260503184006 | 55 | 60 | 2.0 | 9.0 | 0.00 | 0.00 | 0.00 | 39 | 1009.8 |
| 20260503183504 | 55 | 285 | 2.0 | 9.0 | 0.00 | 0.00 | 0.00 | 41 | 1009.8 |
| 20260503183019 | 53 | 13 | 2.0 | 10.0 | 0.00 | 0.00 | 0.00 | 40 | 1009.9 |
| 20260503182510 | 53 | 295 | 3.0 | 13.0 | 0.00 | 0.00 | 0.00 | 39 | 1010.0 |
| 20260503182010 | 53 | 256 | 3.0 | 13.0 | 0.00 | 0.00 | 0.00 | 40 | 1010.0 |
| 20260503181521 | 53 | 294 | 3.0 | 9.0 | 0.00 | 0.00 | 0.00 | 42 | 1009.8 |
| 20260503181006 | 53 | 315 | 2.0 | 13.0 | 0.00 | 0.00 | 0.00 | 40 | 1009.7 |
| 20260503180503 | 53 | 321 | 5.0 | 13.0 | 0.00 | 0.00 | 0.00 | 39 | 1009.7 |
| 20260503180008 | 52 | 359 | 2.0 | 11.0 | 0.00 | 0.00 | 0.00 | 41 | 1009.8 |
| 20260503175504 | 52 | 230 | 4.0 | 11.0 | 0.00 | 0.00 | 0.00 | 39 | 1009.8 |
| 20260503175003 | 53 | 276 | 4.0 | 11.0 | 0.00 | 0.00 | 0.00 | 37 | 1009.9 |
| 20260503174510 | 53 | 97 | 2.0 | 10.0 | 0.00 | 0.00 | 0.00 | 41 | 1009.8 |
| 20260503174006 | 52 | 309 | 1.0 | 9.0 | 0.00 | 0.00 | 0.00 | 40 | 1009.7 |
| 20260503173504 | 52 | 221 | 3.0 | 11.0 | 0.00 | 0.00 | 0.00 | 40 | 1009.8 |
| 20260503173016 | 52 | 9 | 2.0 | 11.0 | 0.00 | 0.00 | 0.00 | 39 | 1010.0 |
| 20260503172512 | 52 | 44 | 2.0 | 15.0 | 0.00 | 0.00 | 0.00 | 37 | 1009.9 |
| 20260503172010 | 53 | 25 | 2.0 | 15.0 | 0.00 | 0.00 | 0.00 | 39 | 1010.0 |
| 20260503171520 | 52 | 285 | 3.0 | 12.0 | 0.00 | 0.00 | 0.00 | 39 | 1009.9 |
| 20260503171008 | 52 | 311 | 2.0 | 12.0 | 0.00 | 0.00 | 0.00 | 40 | 1009.8 |
| 20260503170507 | 52 | 300 | 2.0 | 11.0 | 0.00 | 0.00 | 0.00 | 40 | 1009.8 |
| 20260503151006 | 50 | 304 | 1.0 | 5.0 | 0.00 | 0.00 | 0.00 | 53 | 1010.4 |
| 20260503150507 | 50 | 13 | 1.0 | 7.0 | 0.00 | 0.00 | 0.00 | 54 | 1010.3 |